sensor_id;sensor_type;location;lat;lon;timestamp;P1;P4;P2;P0;N10;N4;N25;N1;N05;TS
74572;SPS30;63071;51.526;-0.134;2022-10-16T00:02:22;4.30;3.97;3.27;2.29;18.32;18.29;18.13;17.27;13.52;0.73
74572;SPS30;63071;51.526;-0.134;2022-10-16T00:04:48;4.26;3.92;3.19;2.19;17.52;17.49;17.33;16.44;12.77;0.76
74572;SPS30;63071;51.526;-0.134;2022-10-16T00:07:13;4.08;3.74;3.02;2.04;16.31;16.28;16.12;15.25;11.77;0.77
74572;SPS30;63071;51.526;-0.134;2022-10-16T00:09:39;4.21;3.88;3.17;2.19;17.56;17.52;17.37;16.51;12.86;0.75
74572;SPS30;63071;51.526;-0.134;2022-10-16T00:12:04;4.07;3.74;3.03;2.05;16.43;16.40;16.24;15.38;11.90;0.76
74572;SPS30;63071;51.526;-0.134;2022-10-16T00:14:31;4.63;4.23;3.39;2.24;17.94;17.90;17.71;16.69;12.78;0.78
74572;SPS30;63071;51.526;-0.134;2022-10-16T00:16:57;4.61;4.21;3.35;2.19;17.52;17.48;17.29;16.26;12.39;0.78
74572;SPS30;63071;51.526;-0.134;2022-10-16T00:19:22;4.53;4.12;3.26;2.09;16.79;16.75;16.56;15.52;11.75;0.80
74572;SPS30;63071;51.526;-0.134;2022-10-16T00:21:48;4.64;4.21;3.30;2.08;16.71;16.67;16.47;15.37;11.54;0.82
74572;SPS30;63071;51.526;-0.134;2022-10-16T00:24:13;4.36;3.97;3.13;2.00;16.05;16.01;15.82;14.81;11.19;0.81
74572;SPS30;63071;51.526;-0.134;2022-10-16T00:26:39;4.93;4.49;3.54;2.26;18.15;18.11;17.90;16.76;12.67;0.82
74572;SPS30;63071;51.526;-0.134;2022-10-16T00:29:05;4.96;4.52;3.56;2.27;18.21;18.16;17.95;16.80;12.68;0.82
74572;SPS30;63071;51.526;-0.134;2022-10-16T00:31:31;4.50;4.11;3.27;2.13;17.08;17.04;16.86;15.84;12.06;0.79
74572;SPS30;63071;51.526;-0.134;2022-10-16T00:33:57;4.69;4.27;3.37;2.16;17.34;17.30;17.10;16.02;12.12;0.80
74572;SPS30;63071;51.526;-0.134;2022-10-16T00:36:23;4.42;4.06;3.28;2.21;17.72;17.68;17.51;16.56;12.79;0.76
74572;SPS30;63071;51.526;-0.134;2022-10-16T00:38:51;4.19;3.84;3.08;2.05;16.45;16.41;16.25;15.33;11.77;0.78
74572;SPS30;63071;51.526;-0.134;2022-10-16T00:41:19;4.53;4.14;3.29;2.16;17.29;17.25;17.07;16.05;12.25;0.79
74572;SPS30;63071;51.526;-0.134;2022-10-16T00:43:47;4.04;3.70;2.95;1.94;15.58;15.55;15.38;14.48;11.08;0.80
74572;SPS30;63071;51.526;-0.134;2022-10-16T00:46:15;4.28;3.92;3.16;2.12;16.96;16.92;16.75;15.83;12.19;0.79
74572;SPS30;63071;51.526;-0.134;2022-10-16T00:48:45;3.86;3.54;2.85;1.90;15.22;15.19;15.03;14.19;10.91;0.78
74572;SPS30;63071;51.526;-0.134;2022-10-16T00:51:19;3.74;3.41;2.73;1.79;14.37;14.34;14.19;13.36;10.21;0.80
74572;SPS30;63071;51.526;-0.134;2022-10-16T00:53:50;3.69;3.36;2.67;1.73;13.83;13.80;13.65;12.81;9.72;0.80
74572;SPS30;63071;51.526;-0.134;2022-10-16T00:56:16;4.43;4.03;3.18;2.03;16.25;16.21;16.02;14.99;11.31;0.81
74572;SPS30;63071;51.526;-0.134;2022-10-16T00:58:42;4.24;3.87;3.07;1.99;15.98;15.95;15.77;14.81;11.26;0.81
74572;SPS30;63071;51.526;-0.134;2022-10-16T01:01:08;4.38;3.98;3.13;2.00;16.01;15.97;15.78;14.76;11.13;0.82
74572;SPS30;63071;51.526;-0.134;2022-10-16T01:03:35;4.77;4.32;3.36;2.09;16.77;16.73;16.52;15.37;11.47;0.83
74572;SPS30;63071;51.526;-0.134;2022-10-16T01:09:02;4.46;4.07;3.23;2.11;16.88;16.85;16.66;15.66;11.92;0.80
74572;SPS30;63071;51.526;-0.134;2022-10-16T01:12:04;3.75;3.44;2.77;1.86;14.92;14.88;14.74;13.93;10.73;0.77
74572;SPS30;63071;51.526;-0.134;2022-10-16T01:20:33;3.70;3.39;2.71;1.79;14.36;14.33;14.18;13.36;10.24;0.79
74572;SPS30;63071;51.526;-0.134;2022-10-16T01:25:59;4.80;4.34;3.34;2.03;16.26;16.21;16.00;14.81;10.92;0.87
74572;SPS30;63071;51.526;-0.134;2022-10-16T01:28:45;4.50;4.09;3.20;2.03;16.24;16.20;16.01;14.95;11.24;0.84
74572;SPS30;63071;51.526;-0.134;2022-10-16T01:31:22;4.79;4.35;3.41;2.15;17.23;17.18;16.98;15.84;11.89;0.85
74572;SPS30;63071;51.526;-0.134;2022-10-16T01:33:55;4.30;3.92;3.10;2.00;16.05;16.01;15.83;14.85;11.26;0.82
74572;SPS30;63071;51.526;-0.134;2022-10-16T01:36:35;4.29;3.92;3.13;2.06;16.48;16.44;16.27;15.31;11.70;0.81
74572;SPS30;63071;51.526;-0.134;2022-10-16T01:39:08;4.74;4.32;3.42;2.21;17.69;17.64;17.45;16.36;12.40;0.82
74572;SPS30;63071;51.526;-0.134;2022-10-16T01:41:41;4.44;4.02;3.12;1.92;15.41;15.37;15.17;14.09;10.46;0.83
74572;SPS30;63071;51.526;-0.134;2022-10-16T01:44:15;4.45;4.04;3.15;1.96;15.76;15.72;15.53;14.46;10.80;0.81
74572;SPS30;63071;51.526;-0.134;2022-10-16T01:46:57;4.87;4.42;3.46;2.17;17.39;17.35;17.14;15.98;11.97;0.80
74572;SPS30;63071;51.526;-0.134;2022-10-16T01:49:25;4.52;4.11;3.23;2.06;16.49;16.45;16.26;15.20;11.45;0.80
74572;SPS30;63071;51.526;-0.134;2022-10-16T01:51:57;4.74;4.29;3.31;2.02;16.21;16.16;15.95;14.78;10.93;0.84
74572;SPS30;63071;51.526;-0.134;2022-10-16T01:54:28;4.86;4.40;3.40;2.07;16.62;16.57;16.36;15.16;11.21;0.83
74572;SPS30;63071;51.526;-0.134;2022-10-16T01:56:59;4.23;3.83;2.97;1.82;14.63;14.60;14.41;13.37;9.93;0.83
74572;SPS30;63071;51.526;-0.134;2022-10-16T01:59:29;4.14;3.75;2.91;1.79;14.35;14.31;14.13;13.12;9.74;0.84
74572;SPS30;63071;51.526;-0.134;2022-10-16T02:02:01;4.49;4.07;3.15;1.94;15.54;15.50;15.30;14.20;10.54;0.85
74572;SPS30;63071;51.526;-0.134;2022-10-16T02:04:33;4.22;3.81;2.94;1.79;14.33;14.29;14.10;13.05;9.63;0.85
74572;SPS30;63071;51.526;-0.134;2022-10-16T02:07:03;4.80;4.33;3.32;1.98;15.89;15.84;15.62;14.40;10.54;0.87
74572;SPS30;63071;51.526;-0.134;2022-10-16T02:09:32;4.93;4.44;3.37;1.97;15.82;15.77;15.54;14.27;10.34;0.88
74572;SPS30;63071;51.526;-0.134;2022-10-16T02:11:59;5.30;4.77;3.65;2.17;17.43;17.38;17.14;15.79;11.54;0.87
74572;SPS30;63071;51.526;-0.134;2022-10-16T02:14:31;4.46;4.01;3.04;1.77;14.18;14.13;13.92;12.76;9.21;0.89
74572;SPS30;63071;51.526;-0.134;2022-10-16T02:16:57;4.39;3.96;3.03;1.80;14.49;14.45;14.24;13.13;9.60;0.86
74572;SPS30;63071;51.526;-0.134;2022-10-16T02:19:23;4.15;3.75;2.88;1.74;14.00;13.96;13.78;12.74;9.39;0.85
74572;SPS30;63071;51.526;-0.134;2022-10-16T02:22:00;4.45;4.03;3.13;1.93;15.48;15.44;15.24;14.16;10.53;0.83
74572;SPS30;63071;51.526;-0.134;2022-10-16T02:24:33;5.12;4.62;3.55;2.13;17.06;17.01;16.78;15.49;11.36;0.85
74572;SPS30;63071;51.526;-0.134;2022-10-16T02:27:18;4.65;4.20;3.23;1.95;15.67;15.63;15.42;14.25;10.49;0.85
74572;SPS30;63071;51.526;-0.134;2022-10-16T02:29:49;4.83;4.35;3.32;1.96;15.71;15.66;15.44;14.20;10.33;0.86
74572;SPS30;63071;51.526;-0.134;2022-10-16T02:32:24;5.01;4.51;3.42;1.99;15.99;15.94;15.70;14.40;10.41;0.87
74572;SPS30;63071;51.526;-0.134;2022-10-16T02:34:56;4.97;4.48;3.42;2.02;16.26;16.21;15.98;14.71;10.73;0.86
74572;SPS30;63071;51.526;-0.134;2022-10-16T02:37:24;4.63;4.16;3.17;1.87;15.02;14.98;14.76;13.57;9.87;0.87
74572;SPS30;63071;51.526;-0.134;2022-10-16T02:39:52;4.00;3.62;2.81;1.74;13.96;13.92;13.74;12.77;9.51;0.83
74572;SPS30;63071;51.526;-0.134;2022-10-16T02:42:20;4.32;3.91;3.03;1.86;14.90;14.86;14.67;13.61;10.09;0.85
74572;SPS30;63071;51.526;-0.134;2022-10-16T02:44:46;4.00;3.62;2.81;1.74;13.94;13.90;13.73;12.75;9.49;0.84
74572;SPS30;63071;51.526;-0.134;2022-10-16T02:47:11;3.97;3.60;2.80;1.73;13.90;13.86;13.69;12.72;9.48;0.83
74572;SPS30;63071;51.526;-0.134;2022-10-16T02:49:37;4.09;3.71;2.90;1.81;14.56;14.52;14.34;13.36;10.00;0.81
74572;SPS30;63071;51.526;-0.134;2022-10-16T02:52:03;3.68;3.35;2.64;1.69;13.53;13.50;13.35;12.49;9.44;0.80
74572;SPS30;63071;51.526;-0.134;2022-10-16T02:54:28;3.96;3.61;2.86;1.84;14.79;14.75;14.59;13.68;10.38;0.81
74572;SPS30;63071;51.526;-0.134;2022-10-16T02:56:54;3.91;3.57;2.83;1.83;14.71;14.67;14.51;13.62;10.35;0.81
74572;SPS30;63071;51.526;-0.134;2022-10-16T02:59:19;3.50;3.18;2.50;1.59;12.75;12.72;12.57;11.75;8.85;0.83
74572;SPS30;63071;51.526;-0.134;2022-10-16T03:01:44;3.45;3.13;2.46;1.55;12.43;12.40;12.26;11.44;8.60;0.83
74572;SPS30;63071;51.526;-0.134;2022-10-16T03:04:10;3.71;3.36;2.63;1.65;13.23;13.20;13.04;12.15;9.10;0.83
74572;SPS30;63071;51.526;-0.134;2022-10-16T03:06:35;4.22;3.82;2.95;1.81;14.50;14.46;14.28;13.24;9.80;0.84
74572;SPS30;63071;51.526;-0.134;2022-10-16T03:09:01;4.00;3.61;2.78;1.67;13.40;13.36;13.18;12.17;8.94;0.85
74572;SPS30;63071;51.526;-0.134;2022-10-16T03:11:26;3.64;3.29;2.54;1.55;12.45;12.41;12.25;11.35;8.40;0.84
74572;SPS30;63071;51.526;-0.134;2022-10-16T03:13:53;3.88;3.52;2.74;1.71;13.71;13.68;13.51;12.57;9.39;0.83
74572;SPS30;63071;51.526;-0.134;2022-10-16T03:16:19;3.70;3.35;2.59;1.58;12.68;12.64;12.48;11.57;8.56;0.86
74572;SPS30;63071;51.526;-0.134;2022-10-16T03:18:47;3.39;3.08;2.41;1.51;12.12;12.09;11.94;11.14;8.35;0.84
74572;SPS30;63071;51.526;-0.134;2022-10-16T03:21:14;3.38;3.08;2.43;1.55;12.47;12.44;12.30;11.51;8.70;0.82
74572;SPS30;63071;51.526;-0.134;2022-10-16T03:23:40;3.86;3.50;2.73;1.70;13.64;13.60;13.43;12.50;9.33;0.84
74572;SPS30;63071;51.526;-0.134;2022-10-16T03:26:05;3.69;3.34;2.59;1.59;12.80;12.76;12.60;11.70;8.69;0.83
74572;SPS30;63071;51.526;-0.134;2022-10-16T03:28:31;4.12;3.72;2.86;1.73;13.90;13.86;13.67;12.64;9.31;0.84
74572;SPS30;63071;51.526;-0.134;2022-10-16T03:30:56;4.29;3.86;2.94;1.73;13.93;13.89;13.69;12.59;9.15;0.86
74572;SPS30;63071;51.526;-0.134;2022-10-16T03:33:21;4.06;3.67;2.81;1.68;13.48;13.44;13.26;12.23;8.96;0.86
74572;SPS30;63071;51.526;-0.134;2022-10-16T03:35:53;3.39;3.07;2.38;1.46;11.70;11.67;11.52;10.69;7.93;0.84
74572;SPS30;63071;51.526;-0.134;2022-10-16T03:38:19;3.83;3.47;2.70;1.67;13.40;13.37;13.20;12.27;9.14;0.83
74572;SPS30;63071;51.526;-0.134;2022-10-16T03:40:46;3.46;3.14;2.45;1.53;12.29;12.26;12.11;11.28;8.44;0.83
74572;SPS30;63071;51.526;-0.134;2022-10-16T03:43:12;3.30;2.99;2.32;1.43;11.44;11.41;11.26;10.45;7.76;0.84
74572;SPS30;63071;51.526;-0.134;2022-10-16T03:45:38;3.72;3.36;2.58;1.56;12.49;12.46;12.29;11.36;8.36;0.85
74572;SPS30;63071;51.526;-0.134;2022-10-16T03:48:03;3.25;2.94;2.29;1.41;11.35;11.32;11.18;10.39;7.73;0.83
74572;SPS30;63071;51.526;-0.134;2022-10-16T03:50:29;3.07;2.78;2.16;1.33;10.64;10.61;10.48;9.73;7.22;0.83
74572;SPS30;63071;51.526;-0.134;2022-10-16T03:52:55;3.43;3.09;2.37;1.41;11.35;11.31;11.16;10.29;7.53;0.86
74572;SPS30;63071;51.526;-0.134;2022-10-16T03:55:20;3.78;3.40;2.59;1.52;12.20;12.16;11.99;11.01;8.00;0.88
74572;SPS30;63071;51.526;-0.134;2022-10-16T03:57:46;3.76;3.38;2.57;1.50;12.05;12.02;11.84;10.87;7.87;0.88
74572;SPS30;63071;51.526;-0.134;2022-10-16T04:00:11;3.54;3.19;2.42;1.41;11.35;11.32;11.15;10.23;7.41;0.90
74572;SPS30;63071;51.526;-0.134;2022-10-16T04:02:38;3.07;2.77;2.12;1.27;10.17;10.14;10.00;9.23;6.76;0.88
74572;SPS30;63071;51.526;-0.134;2022-10-16T04:05:04;3.43;3.11;2.41;1.49;11.93;11.90;11.75;10.91;8.11;0.87
74572;SPS30;63071;51.526;-0.134;2022-10-16T04:07:29;3.16;2.86;2.21;1.36;10.88;10.85;10.71;9.93;7.36;0.87
74572;SPS30;63071;51.526;-0.134;2022-10-16T04:09:55;3.02;2.73;2.11;1.29;10.31;10.29;10.15;9.41;6.96;0.87
74572;SPS30;63071;51.526;-0.134;2022-10-16T04:12:22;3.40;3.07;2.36;1.43;11.50;11.47;11.32;10.48;7.72;0.88
74572;SPS30;63071;51.526;-0.134;2022-10-16T04:14:47;3.68;3.35;2.63;1.66;13.34;13.31;13.15;12.29;9.24;0.84
74572;SPS30;63071;51.526;-0.134;2022-10-16T04:17:13;3.29;2.99;2.36;1.51;12.10;12.07;11.94;11.17;8.44;0.84
74572;SPS30;63071;51.526;-0.134;2022-10-16T04:19:38;3.59;3.26;2.55;1.59;12.78;12.75;12.59;11.73;8.78;0.85
74572;SPS30;63071;51.526;-0.134;2022-10-16T04:22:03;3.48;3.15;2.45;1.52;12.23;12.20;12.05;11.21;8.36;0.85
74572;SPS30;63071;51.526;-0.134;2022-10-16T04:24:29;3.25;2.94;2.27;1.38;11.09;11.06;10.92;10.11;7.47;0.86
74572;SPS30;63071;51.526;-0.134;2022-10-16T04:26:54;3.11;2.83;2.22;1.40;11.25;11.22;11.09;10.36;7.79;0.83
74572;SPS30;63071;51.526;-0.134;2022-10-16T04:29:20;2.97;2.71;2.15;1.39;11.18;11.15;11.03;10.35;7.87;0.81
74572;SPS30;63071;51.526;-0.134;2022-10-16T04:31:46;3.18;2.90;2.29;1.47;11.80;11.77;11.64;10.90;8.25;0.82
74572;SPS30;63071;51.526;-0.134;2022-10-16T04:34:11;3.32;3.02;2.36;1.47;11.83;11.80;11.66;10.86;8.13;0.84
74572;SPS30;63071;51.526;-0.134;2022-10-16T04:36:37;3.54;3.22;2.52;1.59;12.74;12.70;12.55;11.71;8.79;0.83
74572;SPS30;63071;51.526;-0.134;2022-10-16T04:39:02;3.16;2.86;2.21;1.34;10.79;10.76;10.62;9.84;7.27;0.86
74572;SPS30;63071;51.526;-0.134;2022-10-16T04:41:28;3.45;3.12;2.42;1.48;11.86;11.83;11.67;10.82;8.02;0.85
74572;SPS30;63071;51.526;-0.134;2022-10-16T04:43:53;3.34;3.03;2.34;1.43;11.51;11.48;11.33;10.51;7.78;0.85
74572;SPS30;63071;51.526;-0.134;2022-10-16T04:46:19;3.29;2.98;2.33;1.46;11.74;11.71;11.57;10.78;8.08;0.83
74572;SPS30;63071;51.526;-0.134;2022-10-16T04:48:44;3.10;2.81;2.20;1.37;11.01;10.98;10.85;10.11;7.56;0.83
74572;SPS30;63071;51.526;-0.134;2022-10-16T04:51:10;3.51;3.18;2.47;1.53;12.25;12.22;12.06;11.21;8.34;0.84
74572;SPS30;63071;51.526;-0.134;2022-10-16T04:53:35;3.32;3.00;2.31;1.41;11.31;11.28;11.13;10.31;7.62;0.85
74572;SPS30;63071;51.526;-0.134;2022-10-16T04:56:01;3.43;3.11;2.44;1.54;12.39;12.36;12.21;11.41;8.58;0.82
74572;SPS30;63071;51.526;-0.134;2022-10-16T04:58:27;3.28;2.99;2.36;1.51;12.11;12.08;11.94;11.18;8.46;0.82
74572;SPS30;63071;51.526;-0.134;2022-10-16T05:00:52;3.16;2.88;2.28;1.47;11.78;11.75;11.62;10.90;8.26;0.80
74572;SPS30;63071;51.526;-0.134;2022-10-16T05:03:18;2.94;2.68;2.14;1.40;11.19;11.17;11.05;10.39;7.92;0.79
74572;SPS30;63071;51.526;-0.134;2022-10-16T05:05:44;2.89;2.63;2.09;1.35;10.82;10.79;10.68;10.02;7.60;0.79
74572;SPS30;63071;51.526;-0.134;2022-10-16T05:08:11;2.97;2.71;2.15;1.39;11.13;11.10;10.98;10.30;7.82;0.79
74572;SPS30;63071;51.526;-0.134;2022-10-16T05:10:38;3.24;2.95;2.32;1.48;11.91;11.88;11.74;10.99;8.30;0.80
74572;SPS30;63071;51.526;-0.134;2022-10-16T05:13:04;3.08;2.79;2.18;1.37;10.99;10.96;10.83;10.10;7.56;0.82
74572;SPS30;63071;51.526;-0.134;2022-10-16T05:15:29;3.39;3.09;2.42;1.54;12.33;12.30;12.16;11.36;8.55;0.81
74572;SPS30;63071;51.526;-0.134;2022-10-16T05:17:55;2.88;2.62;2.06;1.30;10.44;10.42;10.29;9.61;7.23;0.81
74572;SPS30;63071;51.526;-0.134;2022-10-16T05:20:21;3.19;2.90;2.26;1.42;11.36;11.33;11.19;10.43;7.80;0.82
74572;SPS30;63071;51.526;-0.134;2022-10-16T05:22:47;3.23;2.93;2.27;1.40;11.23;11.20;11.06;10.27;7.63;0.84
74572;SPS30;63071;51.526;-0.134;2022-10-16T05:25:13;3.37;3.05;2.36;1.45;11.61;11.57;11.42;10.60;7.85;0.84
74572;SPS30;63071;51.526;-0.134;2022-10-16T05:27:38;3.21;2.90;2.22;1.33;10.66;10.63;10.48;9.67;7.09;0.85
74572;SPS30;63071;51.526;-0.134;2022-10-16T05:30:04;3.62;3.26;2.49;1.47;11.83;11.80;11.63;10.71;7.81;0.85
74572;SPS30;63071;51.526;-0.134;2022-10-16T05:32:30;3.21;2.90;2.24;1.36;10.92;10.89;10.75;9.95;7.35;0.84
74572;SPS30;63071;51.526;-0.134;2022-10-16T05:34:55;3.53;3.20;2.47;1.52;12.17;12.14;11.98;11.12;8.24;0.84
74572;SPS30;63071;51.526;-0.134;2022-10-16T05:37:20;3.63;3.28;2.54;1.56;12.52;12.49;12.33;11.44;8.49;0.84
74572;SPS30;63071;51.526;-0.134;2022-10-16T05:39:46;3.89;3.51;2.70;1.62;12.98;12.94;12.76;11.78;8.64;0.86
74572;SPS30;63071;51.526;-0.134;2022-10-16T05:42:11;3.49;3.15;2.42;1.46;11.76;11.72;11.56;10.70;7.88;0.85
74572;SPS30;63071;51.526;-0.134;2022-10-16T05:44:37;3.35;3.02;2.31;1.38;11.09;11.06;10.90;10.05;7.36;0.85
74572;SPS30;63071;51.526;-0.134;2022-10-16T05:47:02;3.00;2.72;2.09;1.27;10.18;10.15;10.02;9.27;6.84;0.85
74572;SPS30;63071;51.526;-0.134;2022-10-16T05:49:28;3.36;3.03;2.33;1.40;11.22;11.19;11.04;10.19;7.48;0.85
74572;SPS30;63071;51.526;-0.134;2022-10-16T05:51:53;3.26;2.94;2.27;1.37;10.98;10.95;10.80;9.99;7.35;0.85
74572;SPS30;63071;51.526;-0.134;2022-10-16T05:54:18;3.50;3.16;2.41;1.43;11.48;11.44;11.28;10.39;7.58;0.87
74572;SPS30;63071;51.526;-0.134;2022-10-16T05:56:44;3.38;3.05;2.33;1.39;11.14;11.11;10.96;10.10;7.38;0.87
74572;SPS30;63071;51.526;-0.134;2022-10-16T05:59:09;3.08;2.79;2.15;1.31;10.48;10.45;10.31;9.54;7.04;0.86
74572;SPS30;63071;51.526;-0.134;2022-10-16T06:01:35;3.12;2.83;2.21;1.37;11.00;10.97;10.83;10.08;7.52;0.85
74572;SPS30;63071;51.526;-0.134;2022-10-16T06:04:00;3.13;2.84;2.21;1.38;11.04;11.01;10.87;10.11;7.55;0.85
74572;SPS30;63071;51.526;-0.134;2022-10-16T06:06:27;2.99;2.70;2.09;1.28;10.29;10.26;10.13;9.39;6.96;0.85
74572;SPS30;63071;51.526;-0.134;2022-10-16T06:08:53;2.97;2.68;2.06;1.23;9.88;9.85;9.71;8.96;6.57;0.87
74572;SPS30;63071;51.526;-0.134;2022-10-16T06:11:21;3.28;2.97;2.28;1.38;11.08;11.05;10.90;10.08;7.42;0.86
74572;SPS30;63071;51.526;-0.134;2022-10-16T06:13:54;3.45;3.12;2.40;1.44;11.59;11.55;11.40;10.53;7.74;0.87
74572;SPS30;63071;51.526;-0.134;2022-10-16T06:16:25;2.98;2.69;2.04;1.20;9.63;9.60;9.46;8.69;6.31;0.88
74572;SPS30;63071;51.526;-0.134;2022-10-16T06:18:51;3.64;3.27;2.47;1.43;11.46;11.42;11.25;10.29;7.41;0.90
74572;SPS30;63071;51.526;-0.134;2022-10-16T06:21:21;3.75;3.38;2.57;1.51;12.10;12.06;11.88;10.92;7.92;0.89
74572;SPS30;63071;51.526;-0.134;2022-10-16T06:23:51;3.11;2.80;2.14;1.27;10.23;10.20;10.05;9.27;6.77;0.88
74572;SPS30;63071;51.526;-0.134;2022-10-16T06:26:19;3.34;3.00;2.29;1.35;10.81;10.78;10.63;9.77;7.10;0.90
74572;SPS30;63071;51.526;-0.134;2022-10-16T06:28:47;3.50;3.15;2.42;1.45;11.62;11.59;11.43;10.55;7.73;0.89
74572;SPS30;63071;51.526;-0.134;2022-10-16T06:31:14;2.97;2.68;2.05;1.22;9.81;9.78;9.64;8.89;6.50;0.90
74572;SPS30;63071;51.526;-0.134;2022-10-16T06:33:41;2.97;2.69;2.10;1.30;10.42;10.39;10.26;9.54;7.11;0.86
74572;SPS30;63071;51.526;-0.134;2022-10-16T06:36:08;3.01;2.72;2.10;1.29;10.33;10.30;10.17;9.43;6.98;0.86
74572;SPS30;63071;51.526;-0.134;2022-10-16T06:38:37;3.21;2.90;2.24;1.36;10.90;10.87;10.73;9.93;7.33;0.86
74572;SPS30;63071;51.526;-0.134;2022-10-16T06:41:03;3.34;3.02;2.32;1.41;11.28;11.25;11.10;10.27;7.56;0.86
74572;SPS30;63071;51.526;-0.134;2022-10-16T06:43:30;3.08;2.79;2.16;1.32;10.59;10.56;10.42;9.66;7.16;0.84
74572;SPS30;63071;51.526;-0.134;2022-10-16T06:46:00;3.09;2.80;2.17;1.34;10.73;10.71;10.57;9.81;7.29;0.83
74572;SPS30;63071;51.526;-0.134;2022-10-16T06:48:27;3.28;2.96;2.28;1.37;11.02;10.99;10.84;10.02;7.37;0.84
74572;SPS30;63071;51.526;-0.134;2022-10-16T06:50:57;4.01;3.61;2.74;1.61;12.91;12.87;12.68;11.65;8.45;0.87
74572;SPS30;63071;51.526;-0.134;2022-10-16T06:53:24;3.80;3.41;2.58;1.48;11.91;11.88;11.69;10.70;7.68;0.89
74572;SPS30;63071;51.526;-0.134;2022-10-16T06:55:51;3.58;3.21;2.41;1.37;10.99;10.96;10.78;9.83;7.01;0.90
74572;SPS30;63071;51.526;-0.134;2022-10-16T06:58:17;2.94;2.64;1.99;1.14;9.18;9.15;9.01;8.23;5.91;0.90
74572;SPS30;63071;51.526;-0.134;2022-10-16T07:00:43;3.19;2.87;2.18;1.28;10.27;10.24;10.09;9.27;6.73;0.88
74572;SPS30;63071;51.526;-0.134;2022-10-16T07:03:09;3.03;2.74;2.11;1.27;10.20;10.17;10.04;9.28;6.83;0.86
74572;SPS30;63071;51.526;-0.134;2022-10-16T07:05:38;2.91;2.63;2.04;1.25;10.03;10.01;9.88;9.16;6.80;0.84
74572;SPS30;63071;51.526;-0.134;2022-10-16T07:08:05;3.73;3.37;2.60;1.58;12.66;12.63;12.46;11.54;8.51;0.86
74572;SPS30;63071;51.526;-0.134;2022-10-16T07:10:31;3.63;3.27;2.50;1.49;11.94;11.91;11.74;10.82;7.90;0.87
74572;SPS30;63071;51.526;-0.134;2022-10-16T07:12:56;3.56;3.23;2.51;1.56;12.54;12.51;12.35;11.49;8.58;0.83
74572;SPS30;63071;51.526;-0.134;2022-10-16T07:15:22;3.06;2.79;2.18;1.38;11.08;11.05;10.92;10.20;7.67;0.82
74572;SPS30;63071;51.526;-0.134;2022-10-16T07:17:48;3.03;2.75;2.15;1.36;10.88;10.85;10.72;10.00;7.50;0.82
74572;SPS30;63071;51.526;-0.134;2022-10-16T07:20:13;3.55;3.22;2.51;1.57;12.59;12.56;12.40;11.55;8.63;0.82
74572;SPS30;63071;51.526;-0.134;2022-10-16T07:22:39;3.03;2.76;2.20;1.43;11.48;11.45;11.33;10.65;8.11;0.80
74572;SPS30;63071;51.526;-0.134;2022-10-16T07:25:04;3.00;2.75;2.20;1.46;11.73;11.70;11.59;10.93;8.39;0.79
74572;SPS30;63071;51.526;-0.134;2022-10-16T07:27:30;3.06;2.80;2.23;1.47;11.75;11.73;11.60;10.92;8.34;0.81
74572;SPS30;63071;51.526;-0.134;2022-10-16T07:29:55;3.12;2.84;2.22;1.39;11.19;11.16;11.02;10.28;7.71;0.85
74572;SPS30;63071;51.526;-0.134;2022-10-16T07:32:21;2.82;2.55;1.98;1.21;9.73;9.70;9.58;8.89;6.59;0.85
74572;SPS30;63071;51.526;-0.134;2022-10-16T07:34:46;3.40;3.07;2.37;1.43;11.51;11.48;11.33;10.48;7.73;0.86
74572;SPS30;63071;51.526;-0.134;2022-10-16T07:37:12;3.13;2.83;2.18;1.32;10.59;10.56;10.41;9.63;7.10;0.87
74572;SPS30;63071;51.526;-0.134;2022-10-16T07:39:37;3.25;2.94;2.28;1.40;11.24;11.21;11.07;10.28;7.63;0.86
74572;SPS30;63071;51.526;-0.134;2022-10-16T07:42:03;2.77;2.50;1.92;1.15;9.25;9.23;9.10;8.41;6.17;0.88
74572;SPS30;63071;51.526;-0.134;2022-10-16T07:44:28;2.95;2.66;2.05;1.24;9.95;9.92;9.79;9.06;6.67;0.88
74572;SPS30;63071;51.526;-0.134;2022-10-16T07:46:53;3.17;2.86;2.20;1.33;10.64;10.61;10.47;9.67;7.12;0.87
74572;SPS30;63071;51.526;-0.134;2022-10-16T07:49:19;3.56;3.21;2.47;1.48;11.88;11.85;11.69;10.79;7.92;0.86
74572;SPS30;63071;51.526;-0.134;2022-10-16T07:51:44;3.61;3.26;2.50;1.51;12.10;12.06;11.90;10.99;8.08;0.87
74572;SPS30;63071;51.526;-0.134;2022-10-16T07:54:10;3.88;3.50;2.66;1.57;12.60;12.56;12.38;11.38;8.28;0.88
74572;SPS30;63071;51.526;-0.134;2022-10-16T07:56:35;3.04;2.76;2.14;1.32;10.60;10.57;10.43;9.69;7.21;0.84
74572;SPS30;63071;51.526;-0.134;2022-10-16T07:59:01;2.69;2.44;1.91;1.20;9.62;9.59;9.48;8.84;6.63;0.83
74572;SPS30;63071;51.526;-0.134;2022-10-16T08:01:26;2.70;2.46;1.94;1.25;9.99;9.97;9.86;9.24;6.99;0.83
74572;SPS30;63071;51.526;-0.134;2022-10-16T08:03:52;3.17;2.88;2.27;1.45;11.66;11.63;11.50;10.76;8.13;0.83
74572;SPS30;63071;51.526;-0.134;2022-10-16T08:06:18;3.10;2.82;2.23;1.43;11.46;11.44;11.31;10.59;8.01;0.81
74572;SPS30;63071;51.526;-0.134;2022-10-16T08:08:46;3.22;2.92;2.29;1.44;11.54;11.51;11.37;10.60;7.95;0.83
74572;SPS30;63071;51.526;-0.134;2022-10-16T08:11:12;3.16;2.87;2.25;1.42;11.36;11.33;11.19;10.45;7.84;0.83
74572;SPS30;63071;51.526;-0.134;2022-10-16T08:13:39;3.35;3.05;2.41;1.55;12.44;12.41;12.27;11.50;8.71;0.81
74572;SPS30;63071;51.526;-0.134;2022-10-16T08:16:04;3.30;3.01;2.38;1.54;12.37;12.34;12.21;11.45;8.70;0.79
74572;SPS30;63071;51.526;-0.134;2022-10-16T08:18:34;2.89;2.64;2.11;1.39;11.13;11.10;10.98;10.34;7.91;0.78
74572;SPS30;63071;51.526;-0.134;2022-10-16T08:21:01;3.32;3.02;2.37;1.50;12.01;11.98;11.84;11.06;8.31;0.82
74572;SPS30;63071;51.526;-0.134;2022-10-16T08:23:28;3.38;3.07;2.41;1.52;12.22;12.19;12.05;11.25;8.46;0.81
74572;SPS30;63071;51.526;-0.134;2022-10-16T08:25:54;2.70;2.45;1.93;1.23;9.89;9.87;9.75;9.13;6.89;0.81
74572;SPS30;63071;51.526;-0.134;2022-10-16T08:28:21;3.16;2.87;2.25;1.43;11.45;11.42;11.28;10.54;7.93;0.81
74572;SPS30;63071;51.526;-0.134;2022-10-16T08:30:48;3.40;3.09;2.44;1.55;12.47;12.44;12.29;11.50;8.68;0.80
74572;SPS30;63071;51.526;-0.134;2022-10-16T08:33:13;3.43;3.13;2.47;1.59;12.76;12.73;12.59;11.79;8.93;0.81
74572;SPS30;63071;51.526;-0.134;2022-10-16T08:35:39;3.14;2.86;2.25;1.44;11.52;11.49;11.36;10.62;8.02;0.83
74572;SPS30;63071;51.526;-0.134;2022-10-16T08:38:05;3.41;3.09;2.39;1.47;11.76;11.73;11.58;10.74;7.96;0.86
74572;SPS30;63071;51.526;-0.134;2022-10-16T08:40:32;3.37;3.06;2.39;1.50;12.00;11.97;11.83;11.02;8.25;0.84
74572;SPS30;63071;51.526;-0.134;2022-10-16T08:45:34;3.15;2.87;2.28;1.49;11.92;11.89;11.76;11.05;8.41;0.81
74572;SPS30;63071;51.526;-0.134;2022-10-16T08:48:14;3.34;3.04;2.38;1.51;12.08;12.05;11.90;11.11;8.35;0.83
74572;SPS30;63071;51.526;-0.134;2022-10-16T08:50:43;3.16;2.86;2.22;1.38;11.05;11.02;10.88;10.11;7.53;0.85
74572;SPS30;63071;51.526;-0.134;2022-10-16T08:56:08;2.89;2.63;2.07;1.31;10.50;10.47;10.35;9.67;7.27;0.82
74572;SPS30;63071;51.526;-0.134;2022-10-16T08:58:33;3.05;2.78;2.20;1.42;11.38;11.36;11.23;10.53;7.98;0.81
74572;SPS30;63071;51.526;-0.134;2022-10-16T09:01:00;2.98;2.71;2.15;1.39;11.15;11.12;11.00;10.32;7.83;0.81
74572;SPS30;63071;51.526;-0.134;2022-10-16T09:14:28;3.21;2.95;2.38;1.60;12.85;12.82;12.69;12.01;9.26;0.80
74572;SPS30;63071;51.526;-0.134;2022-10-16T09:23:13;2.86;2.62;2.10;1.41;11.27;11.25;11.14;10.51;8.09;0.79
74572;SPS30;63071;51.526;-0.134;2022-10-16T09:25:48;2.85;2.61;2.11;1.43;11.43;11.41;11.30;10.69;8.26;0.78
74572;SPS30;63071;51.526;-0.134;2022-10-16T09:28:16;3.05;2.79;2.23;1.47;11.78;11.75;11.63;10.95;8.38;0.80
74572;SPS30;63071;51.526;-0.134;2022-10-16T09:30:43;3.06;2.79;2.20;1.41;11.29;11.26;11.14;10.43;7.88;0.82
74572;SPS30;63071;51.526;-0.134;2022-10-16T09:33:10;2.77;2.53;2.02;1.33;10.66;10.63;10.52;9.90;7.57;0.80
74572;SPS30;63071;51.526;-0.134;2022-10-16T09:38:09;2.50;2.29;1.86;1.26;10.11;10.09;10.00;9.47;7.33;0.78
74572;SPS30;63071;51.526;-0.134;2022-10-16T09:41:19;2.72;2.51;2.06;1.44;11.50;11.48;11.38;10.83;8.46;0.77
74572;SPS30;63071;51.526;-0.134;2022-10-16T09:43:48;2.58;2.40;2.01;1.46;11.65;11.63;11.55;11.07;8.77;0.73
74572;SPS30;63071;51.526;-0.134;2022-10-16T09:46:21;2.40;2.24;1.90;1.40;11.21;11.20;11.12;10.70;8.54;0.70
74572;SPS30;63071;51.526;-0.134;2022-10-16T09:48:59;2.99;2.79;2.36;1.74;13.95;13.93;13.84;13.31;10.62;0.69
74572;SPS30;63071;51.526;-0.134;2022-10-16T09:54:02;2.23;2.08;1.75;1.29;10.32;10.30;10.23;9.83;7.83;0.70